HEAX/ALY METAR and TAF weather

Enter ICAO airport designator
Station Type Date Time Source
HEAX METAR 2019/12/14 18:00 UTC NOAA

HEAX 141800Z 18005KT CAVOK 15/02 Q1010


Station Type Date Time Source
HEAX Decoded METAR 2019/12/14 18:00 UTC NOAA

Alexandria / Nouzha, Egypt (HEAX) 31-12N 029-57E 7M
Dec 14, 2019 - 01:00 PM EST / 2019.12.14 1800 UTC
Wind: from the S (180 degrees) at 6 MPH (5 KT):0
Visibility: greater than 7 mile(s):0
Temperature: 59 F (15 C)
Dew Point: 35 F (2 C)
Relative Humidity: 41%
Pressure (altimeter): 29.83 in. Hg (1010 hPa)
ob: HEAX 141800Z 18005KT CAVOK 15/02 Q1010
cycle: 18

Station Type Date Time Source
HEAX TAF 2019/12/14 18:50 UTC NOAA

TAF HEAX 141700Z 1418/1524 21010G22KT 9999 FEW020
TEMPO 1418/1423 4000 SA NSC
TEMPO 1500/1514 6000 TSSHRA FEW017CB BKN020
BECMG 1509/1511 28014KT

Example: see airport list